createdAt,value
2023-04-18T11:19:44.774Z,15.38
2023-04-18T11:22:12.603Z,8.95
2023-04-18T11:24:39.920Z,11.68
2023-04-18T11:27:10.096Z,10.07
2023-04-18T11:29:38.128Z,7.70
2023-04-18T11:32:09.459Z,7.70
2023-04-18T11:34:36.794Z,9.20
2023-04-18T11:37:07.824Z,9.70
2023-04-18T11:39:41.075Z,10.07
2023-04-18T11:42:09.195Z,9.82
2023-04-18T11:44:39.899Z,10.73
2023-04-18T11:47:29.000Z,13.82
2023-04-18T11:50:01.117Z,10.60
2023-04-18T11:52:29.885Z,8.50
2023-04-18T11:55:09.967Z,14.73
2023-04-18T11:57:37.235Z,11.50
2023-04-18T12:00:06.990Z,8.60
2023-04-18T12:02:38.783Z,19.13
2023-04-18T12:05:06.911Z,13.25
2023-04-18T12:07:37.423Z,11.85
2023-04-18T12:10:26.582Z,15.13
2023-04-18T12:12:55.294Z,6.03
2023-04-18T12:15:28.262Z,8.63
2023-04-18T12:18:00.710Z,6.40
2023-04-18T12:20:40.080Z,4.20
2023-04-18T12:23:09.090Z,7.30
2023-04-18T12:25:36.566Z,16.33
2023-04-18T12:28:15.201Z,13.88
2023-04-18T12:30:42.911Z,8.70
2023-04-18T12:33:10.114Z,12.50
2023-04-18T12:35:38.078Z,9.82
2023-04-18T12:38:05.891Z,4.65
2023-04-18T12:40:33.077Z,12.18
2023-04-18T12:43:02.921Z,7.93
2023-04-18T12:45:31.176Z,9.07
2023-04-18T12:47:58.620Z,8.75
2023-04-18T12:50:27.043Z,6.78
2023-04-18T12:52:55.913Z,11.43
2023-04-18T12:55:23.098Z,8.38
2023-04-18T12:57:54.436Z,7.88
2023-04-18T13:00:26.143Z,11.98
2023-04-18T13:02:53.431Z,12.98
2023-04-18T13:05:22.894Z,13.77
2023-04-18T13:07:56.308Z,14.60
2023-04-18T13:10:29.054Z,11.85
2023-04-18T13:12:56.573Z,24.42
2023-04-18T13:15:24.130Z,11.00
2023-04-18T13:17:51.392Z,16.92
2023-04-18T13:20:18.622Z,16.80
2023-04-18T13:22:45.984Z,17.05
2023-04-18T13:25:13.446Z,20.33
2023-04-18T13:27:42.086Z,14.35
2023-04-18T13:30:11.218Z,14.82
2023-04-18T13:32:39.365Z,9.88
2023-04-18T13:35:09.193Z,17.70
2023-04-18T13:37:39.727Z,16.20
2023-04-18T13:40:08.074Z,16.95
2023-04-18T13:42:37.519Z,13.18
2023-04-18T13:45:04.976Z,24.63
2023-04-18T13:47:32.115Z,17.60
2023-04-18T13:49:59.344Z,19.20
2023-04-18T13:52:26.458Z,17.63
2023-04-18T13:54:53.674Z,15.55
2023-04-18T13:57:21.999Z,14.68
2023-04-18T13:59:49.129Z,18.15
2023-04-18T14:02:16.436Z,17.77
2023-04-18T14:04:43.898Z,16.20
2023-04-18T14:07:11.106Z,14.93
2023-04-18T14:09:38.154Z,27.52
2023-04-18T14:12:05.601Z,18.20
2023-04-18T14:14:32.619Z,16.00
2023-04-18T14:16:59.662Z,11.80
2023-04-18T14:19:27.314Z,10.63
2023-04-18T14:21:54.836Z,16.27
2023-04-18T14:24:21.945Z,13.73
2023-04-18T14:26:49.062Z,12.55
2023-04-18T14:29:16.689Z,14.35
2023-04-18T14:31:44.138Z,21.17
2023-04-18T14:34:11.327Z,15.40
2023-04-18T14:36:38.439Z,18.42
2023-04-18T14:39:05.738Z,16.08
2023-04-18T14:41:33.262Z,13.80
2023-04-18T14:44:00.604Z,15.75
2023-04-18T14:46:28.505Z,16.67
2023-04-18T14:48:55.789Z,17.75
2023-04-18T14:51:23.666Z,15.07
2023-04-18T14:53:51.366Z,17.88
2023-04-18T14:56:21.243Z,19.13
2023-04-18T14:58:48.669Z,19.77
2023-04-18T15:01:17.598Z,18.90
2023-04-18T15:03:45.579Z,16.45
2023-04-18T15:06:12.906Z,16.88
2023-04-18T15:08:40.173Z,18.48
2023-04-18T15:11:08.303Z,16.20
2023-04-18T15:13:35.850Z,18.20
2023-04-18T15:16:03.105Z,25.67
2023-04-18T15:18:30.343Z,13.27
2023-04-18T15:20:59.627Z,22.35
2023-04-18T15:23:27.658Z,18.05
2023-04-18T15:25:54.763Z,28.65
2023-04-18T15:28:21.891Z,21.15
2023-04-18T15:30:48.948Z,17.02
2023-04-18T15:33:17.542Z,21.63
2023-04-18T15:35:45.246Z,21.13
2023-04-18T15:38:12.309Z,13.43
2023-04-18T15:40:39.359Z,16.98
2023-04-18T15:43:06.637Z,19.00
2023-04-18T15:45:34.026Z,16.88
2023-04-18T15:48:01.316Z,19.30
2023-04-18T15:50:28.813Z,15.18
2023-04-18T15:52:56.597Z,22.52
2023-04-18T15:55:23.724Z,16.63
2023-04-18T15:57:50.920Z,17.02
2023-04-18T16:00:19.823Z,16.85
2023-04-18T16:02:47.451Z,14.27
2023-04-18T16:05:15.534Z,19.40
2023-04-18T16:07:43.308Z,17.52
2023-04-18T16:10:11.240Z,15.15
2023-04-18T16:12:39.513Z,14.80
2023-04-18T16:15:08.772Z,22.35
2023-04-18T16:17:37.161Z,19.83
2023-04-18T16:20:06.456Z,24.63
2023-04-18T16:22:33.712Z,17.77
2023-04-18T16:25:00.864Z,18.48
2023-04-18T16:27:28.422Z,18.23
2023-04-18T16:29:55.915Z,23.58
2023-04-18T16:32:23.075Z,19.45
2023-04-18T16:34:50.329Z,21.80
2023-04-18T16:37:17.529Z,14.73
2023-04-18T16:39:44.907Z,23.45
2023-04-18T16:42:14.053Z,13.73
2023-04-18T16:44:42.728Z,17.13
2023-04-18T16:47:09.954Z,33.55
2023-04-18T16:49:37.615Z,17.55
2023-04-18T16:52:04.844Z,16.10
2023-04-18T16:54:32.161Z,11.10
2023-04-18T16:56:59.392Z,16.65
2023-04-18T16:59:26.689Z,14.18
2023-04-18T17:01:53.935Z,14.48
2023-04-18T17:04:21.894Z,10.98
2023-04-18T17:06:51.470Z,15.10
2023-04-18T17:09:19.887Z,22.45
2023-04-18T17:11:48.005Z,23.60
2023-04-18T17:14:15.557Z,14.57
2023-04-18T17:16:42.864Z,19.15
2023-04-18T17:19:10.894Z,19.13
2023-04-18T17:21:38.609Z,24.73
2023-04-18T17:24:07.154Z,19.38
2023-04-18T17:26:35.555Z,15.82
2023-04-18T17:29:04.364Z,19.08
2023-04-18T17:31:32.560Z,17.52
2023-04-18T17:34:00.808Z,24.20
2023-04-18T17:36:27.954Z,16.33
2023-04-18T17:38:55.523Z,14.82
2023-04-18T17:41:22.739Z,26.42
2023-04-18T17:43:53.468Z,21.50
2023-04-18T17:46:20.717Z,20.67
2023-04-18T17:48:47.898Z,17.85
2023-04-18T17:51:16.578Z,23.73
2023-04-18T17:53:43.753Z,18.90
2023-04-18T17:56:10.943Z,16.60
2023-04-18T17:58:38.245Z,26.10
2023-04-18T18:01:18.942Z,24.63
2023-04-18T18:03:47.373Z,39.17
2023-04-18T18:06:15.831Z,21.80
2023-04-18T18:08:43.607Z,19.27
2023-04-18T18:11:11.163Z,20.98
2023-04-18T18:13:41.689Z,22.20
2023-04-18T18:16:09.134Z,28.83
2023-04-18T18:18:36.994Z,16.60
2023-04-18T18:21:04.192Z,19.67
2023-04-18T18:23:31.384Z,23.95
2023-04-18T18:25:58.755Z,23.73
2023-04-18T18:28:26.222Z,25.35
2023-04-18T18:30:54.148Z,26.75
2023-04-18T18:33:21.382Z,24.92
2023-04-18T18:35:48.516Z,27.92
2023-04-18T18:38:15.751Z,19.88
2023-04-18T18:40:42.926Z,20.58
2023-04-18T18:43:10.072Z,23.67
2023-04-18T18:45:38.508Z,23.20
2023-04-18T18:48:10.116Z,18.98
2023-04-18T18:50:37.503Z,21.50
2023-04-18T18:53:06.261Z,22.88
2023-04-18T18:55:33.513Z,16.75
2023-04-18T18:58:00.700Z,20.05
2023-04-18T19:00:27.870Z,20.95
2023-04-18T19:02:55.131Z,23.75
2023-04-18T19:05:22.372Z,13.43
2023-04-18T19:07:51.586Z,15.95
2023-04-18T19:10:18.831Z,22.13
2023-04-18T19:12:46.016Z,18.35
2023-04-18T19:15:13.291Z,22.25
2023-04-18T19:17:40.541Z,28.70
2023-04-18T19:20:09.139Z,24.98
2023-04-18T19:22:36.282Z,31.73
2023-04-18T19:25:03.597Z,24.88
2023-04-18T19:27:30.726Z,27.75
2023-04-18T19:29:57.954Z,28.63
2023-04-18T19:32:25.047Z,22.30
2023-04-18T19:34:52.155Z,27.63
2023-04-18T19:37:19.304Z,29.27
2023-04-18T19:39:46.461Z,23.02
2023-04-18T19:42:13.729Z,25.55
2023-04-18T19:44:41.122Z,31.85
2023-04-18T19:47:08.394Z,30.08
2023-04-18T19:49:35.495Z,23.25
2023-04-18T19:52:02.704Z,33.42
2023-04-18T19:54:33.417Z,26.83
2023-04-18T19:57:01.501Z,23.88
2023-04-18T19:59:28.587Z,24.98
2023-04-18T20:01:56.725Z,24.75
2023-04-18T20:04:26.060Z,31.05
2023-04-18T20:06:54.187Z,27.42
2023-04-18T20:09:21.311Z,23.27
2023-04-18T20:11:48.659Z,23.48
2023-04-18T20:14:15.871Z,28.85
2023-04-18T20:16:43.170Z,25.83
2023-04-18T20:19:12.692Z,28.13
2023-04-18T20:21:39.997Z,29.08
2023-04-18T20:24:09.780Z,29.10
2023-04-18T20:26:36.915Z,32.92
2023-04-18T20:29:04.149Z,37.22
2023-04-18T20:31:31.199Z,32.97
2023-04-18T20:33:58.311Z,33.17
2023-04-18T20:36:25.452Z,59.97
2023-04-18T20:38:52.557Z,37.40
2023-04-18T20:41:22.821Z,46.33
2023-04-18T20:43:50.855Z,34.30
2023-04-18T20:46:17.991Z,34.92
2023-04-18T20:48:45.073Z,39.80
2023-04-18T20:51:12.221Z,37.03
2023-04-18T20:53:39.357Z,42.25
2023-04-18T20:56:06.482Z,41.47
2023-04-18T20:58:33.631Z,33.78
2023-04-18T21:01:00.841Z,28.60
2023-04-18T21:03:28.121Z,28.58
2023-04-18T21:05:55.425Z,46.38
2023-04-18T21:08:22.511Z,47.60
2023-04-18T21:10:49.592Z,42.33
2023-04-18T21:13:16.690Z,30.73
2023-04-18T21:15:43.834Z,19.20
2023-04-18T21:18:11.003Z,16.02
2023-04-18T21:20:38.183Z,8.27
2023-04-18T21:23:06.605Z,11.90
2023-04-18T21:25:33.736Z,16.85
2023-04-18T21:28:00.969Z,10.10
2023-04-18T21:30:28.098Z,14.00
2023-04-18T21:32:55.222Z,10.02
2023-04-18T21:35:24.632Z,11.70
2023-04-18T21:37:52.149Z,12.02
2023-04-18T21:40:19.460Z,8.88
2023-04-18T21:42:47.778Z,6.55
2023-04-18T21:45:17.012Z,7.45
2023-04-18T21:47:44.566Z,12.18
2023-04-18T21:50:11.864Z,10.98
2023-04-18T21:52:38.972Z,11.35
2023-04-18T21:55:06.334Z,11.93
2023-04-18T21:57:33.466Z,11.25
2023-04-18T22:00:00.622Z,11.55
2023-04-18T22:02:27.873Z,8.93
2023-04-18T22:04:55.200Z,7.57
2023-04-18T22:07:24.278Z,9.77
2023-04-18T22:09:51.419Z,8.95
2023-04-18T22:12:18.640Z,14.10
2023-04-18T22:14:48.551Z,9.63
2023-04-18T22:17:15.746Z,11.90
2023-04-18T22:19:44.560Z,5.80
2023-04-18T22:22:11.881Z,7.03
2023-04-18T22:24:39.090Z,6.63
2023-04-18T22:27:06.318Z,10.18
2023-04-18T22:29:33.400Z,7.20
2023-04-18T22:32:00.604Z,9.70
2023-04-18T22:34:27.740Z,7.78
2023-04-18T22:36:54.853Z,5.40
2023-04-18T22:39:21.963Z,7.43
2023-04-18T22:41:49.039Z,6.68
2023-04-18T22:44:16.540Z,11.77
2023-04-18T22:46:44.646Z,10.73
2023-04-18T22:49:11.944Z,7.15
2023-04-18T22:51:39.019Z,5.93
2023-04-18T22:54:06.178Z,6.38
2023-04-18T22:56:33.258Z,9.57
2023-04-18T22:59:00.308Z,13.00
2023-04-18T23:01:27.480Z,6.47
2023-04-18T23:03:54.780Z,8.45
2023-04-18T23:06:22.404Z,9.68
2023-04-18T23:08:49.929Z,12.25
2023-04-18T23:11:17.027Z,9.30
2023-04-18T23:13:44.139Z,8.88
2023-04-18T23:16:11.321Z,8.52
2023-04-18T23:18:38.403Z,8.10
2023-04-18T23:21:05.627Z,7.05
2023-04-18T23:23:33.342Z,7.93
2023-04-18T23:26:00.755Z,12.98
2023-04-18T23:28:27.884Z,11.15
2023-04-18T23:30:54.986Z,6.72
2023-04-18T23:33:22.522Z,8.07
2023-04-18T23:35:49.565Z,7.70
2023-04-18T23:38:16.747Z,6.82
2023-04-18T23:40:43.849Z,9.05
2023-04-18T23:43:10.904Z,12.75
2023-04-18T23:45:38.012Z,6.35
2023-04-18T23:48:05.119Z,8.52
2023-04-18T23:50:32.242Z,8.45
2023-04-18T23:52:59.318Z,11.98
2023-04-18T23:55:26.544Z,9.93
2023-04-18T23:57:53.618Z,12.38
